Taiseimaru — JL6483 — position and weather

sailwx.info

Track history (hours):
 
Tides and Currents Weather Stations Pressure Air Temp Water Temp Dewpoint Dewpoint Depression Visibility Wind Speed Wind Dir Waves Ship Positions

Taiseimaru

Last reported at 2017-Apr-28 02:33 UTC. Time now 2017-Apr-29 07:31 UTC.
Position N 34°02' E 134°58'.

Length 84 m; draft 4.7 m.

Type: Cargo ship. MMSI: 431500568.

Date/timePositionNaut miles runAvg speedWind from/ knotsBaromVisibWave heightAir tempDewpointWater temp
2017-Apr-28 02:33N 34°02' E 134°58'311.6
2017-Apr-28 02:20N 34°04' E 134°59'411.7
2017-Apr-28 02:00N 34°07' E 135°01'611.8
2017-Apr-28 01:30N 34°12' E 135°05'3 5.7
2017-Apr-28 01:01N 34°12' E 135°08'0 0.1
2017-Apr-28 00:30N 34°12' E 135°08'0 0.0
2017-Apr-27 23:57N 34°12' E 135°08'2 4.6
2017-Apr-27 23:30N 34°14' E 135°06'1 2.4
2017-Apr-27 23:00N 34°14' E 135°08'0 0.0
2017-Apr-27 22:28N 34°14' E 135°08'0 0.0
2017-Apr-27 21:58N 34°14' E 135°08'0 0.0
2017-Apr-27 21:28N 34°14' E 135°08'0 0.0
2017-Apr-27 20:58N 34°14' E 135°08'0 0.0
2017-Apr-27 20:28N 34°14' E 135°08'0 0.0
2017-Apr-27 19:58N 34°14' E 135°08'0 0.0
2017-Apr-27 19:28N 34°14' E 135°08'0 0.0
2017-Apr-27 18:58N 34°14' E 135°08'0 0.0
2017-Apr-27 18:28N 34°14' E 135°08'0 0.0
2017-Apr-27 17:49N 34°14' E 135°08'0 0.0
2017-Apr-27 17:28N 34°14' E 135°08'0 0.0
2017-Apr-27 16:55N 34°14' E 135°08'0 0.0
2017-Apr-27 16:28N 34°14' E 135°08'0 0.0
2017-Apr-27 15:55N 34°14' E 135°08'0 0.0
2017-Apr-27 15:28N 34°14' E 135°08'0 0.0
2017-Apr-27 14:55N 34°14' E 135°08'4 4.2
2017-Apr-27 14:00N 34°12' E 135°04'611.0
2017-Apr-27 13:29N 34°07' E 135°01'8 0.2
2017-Apr-26 02:38N 33°59' E 134°57'210.8
2017-Apr-26 02:28N 34°01' E 134°58'511.1
2017-Apr-26 02:00N 34°06' E 135°00'611.5
2017-Apr-26 01:30N 34°11' E 135°03'5 9.1
2017-Apr-26 01:00N 34°14' E 135°07'0 0.1
2017-Apr-26 00:26N 34°15' E 135°07'0 0.0
2017-Apr-25 23:59N 34°15' E 135°07'0 0.0
2017-Apr-25 23:26N 34°15' E 135°07'0 0.1
2017-Apr-25 22:41N 34°15' E 135°07'0 0.0
2017-Apr-25 22:23N 34°15' E 135°07'0 0.0
2017-Apr-25 21:59N 34°15' E 135°07'0 0.0
2017-Apr-25 21:29N 34°15' E 135°07'0 0.0
2017-Apr-25 20:56N 34°15' E 135°07'1 1.6
2017-Apr-25 20:30N 34°14' E 135°07'1 1.3
2017-Apr-25 19:59N 34°14' E 135°08'0 0.0
2017-Apr-25 19:29N 34°14' E 135°08'0 0.0
2017-Apr-25 18:59N 34°14' E 135°08'0 0.0
2017-Apr-25 18:29N 34°14' E 135°08'0 0.0
2017-Apr-25 17:53N 34°14' E 135°08'0 0.0
2017-Apr-25 17:29N 34°14' E 135°08'0 0.0
2017-Apr-25 16:59N 34°14' E 135°08'0 0.0
2017-Apr-25 16:29N 34°14' E 135°08'0 0.0
2017-Apr-25 15:59N 34°14' E 135°08'0 0.0
2017-Apr-25 15:29N 34°14' E 135°08'0 0.0
2017-Apr-25 14:59N 34°14' E 135°08'0 0.0
2017-Apr-25 13:56N 34°14' E 135°08'0 0.0
2017-Apr-25 13:29N 34°14' E 135°08'0 0.0
2017-Apr-25 12:59N 34°14' E 135°08'0 0.0
2017-Apr-25 12:30N 34°14' E 135°08'1 1.6
2017-Apr-25 12:00N 34°14' E 135°07'2 4.7
2017-Apr-25 11:30N 34°13' E 135°04'611.3
2017-Apr-25 11:00N 34°08' E 135°02'  
2017-Apr-21 22:57N 34°12' E 134°57'611.4
2017-Apr-21 22:27N 34°17' E 134°59'510.5
2017-Apr-21 21:58N 34°22' E 135°01'511.4
2017-Apr-21 21:30N 34°26' E 135°06'612.0
2017-Apr-21 21:00N 34°30' E 135°11'611.9
2017-Apr-21 20:30N 34°34' E 135°17'612.2
2017-Apr-21 20:00N 34°38' E 135°22'4 8.0
2017-Apr-21 19:30N 34°38' E 135°27'0 0.1
2017-Apr-21 18:54N 34°38' E 135°27'0 0.0
2017-Apr-21 18:30N 34°38' E 135°27'0 0.0
2017-Apr-21 18:00N 34°38' E 135°27'0 0.0
2017-Apr-21 17:30N 34°38' E 135°27'0 0.0
2017-Apr-21 17:00N 34°38' E 135°27'0 0.0
2017-Apr-21 16:30N 34°38' E 135°27'0 0.0
2017-Apr-21 16:00N 34°38' E 135°27'0 0.0
2017-Apr-21 15:30N 34°38' E 135°27'0 0.1
2017-Apr-21 15:00N 34°38' E 135°27'3 6.3
2017-Apr-21 14:30N 34°38' E 135°23'1110.7
2017-Apr-21 13:30N 34°35' E 135°11'611.7
2017-Apr-21 13:00N 34°35' E 135°04'611.5
2017-Apr-21 12:30N 34°36' E 134°57'5 0.1
2017-Apr-19 10:52N 34°35' E 134°51'410.7
2017-Apr-19 10:30N 34°36' E 134°56'5 9.9
2017-Apr-19 10:00N 34°37' E 135°02'5 9.7
2017-Apr-19 09:30N 34°36' E 135°07'611.7
2017-Apr-19 09:00N 34°36' E 135°14'611.7
2017-Apr-19 08:30N 34°37' E 135°21'4 8.9
2017-Apr-19 08:00N 34°38' E 135°27'0 0.4
2017-Apr-19 07:26N 34°38' E 135°27'0 0.0
2017-Apr-19 06:56N 34°38' E 135°27'0 0.0
2017-Apr-19 06:26N 34°38' E 135°27'0 0.0
2017-Apr-19 05:56N 34°38' E 135°27'0 0.0
2017-Apr-19 05:26N 34°38' E 135°27'0 0.0
2017-Apr-19 04:56N 34°38' E 135°27'0 0.0
2017-Apr-19 04:26N 34°38' E 135°27'0 0.0
2017-Apr-19 03:56N 34°38' E 135°27'0 0.0
2017-Apr-19 03:26N 34°38' E 135°27'0 0.0
2017-Apr-19 02:50N 34°38' E 135°27'0 0.0
2017-Apr-19 02:26N 34°38' E 135°27'0 0.0
2017-Apr-19 02:00N 34°38' E 135°27'2 4.8
2017-Apr-19 01:30N 34°39' E 135°24'610.8
2017-Apr-19 00:58N 34°36' E 135°18'511.4
2017-Apr-19 00:30N 34°35' E 135°12'612.1
2017-Apr-19 00:00N 34°35' E 135°04'712.5
2017-Apr-18 23:28N 34°36' E 134°56'  
Track history (hours):
 
Tides and Currents Weather Stations Pressure Air Temp Water Temp Dewpoint Dewpoint Depression Visibility Wind Speed Wind Dir Waves Ship Positions

Taiseimaru

Last reported at 2017-Apr-28 02:33 UTC. Time now 2017-Apr-29 07:31 UTC.
Position N 34°02' E 134°58'.

Length 84 m; draft 4.7 m.

Type: Cargo ship. MMSI: 431500568.

Date/timePositionNaut miles runAvg speedWind from/ knotsBaromVisibWave heightAir tempDewpointWater temp
2017-Apr-28 02:33N 34°02' E 134°58'311.6
2017-Apr-28 02:20N 34°04' E 134°59'411.7
2017-Apr-28 02:00N 34°07' E 135°01'611.8
2017-Apr-28 01:30N 34°12' E 135°05'3 5.7
2017-Apr-28 01:01N 34°12' E 135°08'0 0.1
2017-Apr-28 00:30N 34°12' E 135°08'0 0.0
2017-Apr-27 23:57N 34°12' E 135°08'2 4.6
2017-Apr-27 23:30N 34°14' E 135°06'1 2.4
2017-Apr-27 23:00N 34°14' E 135°08'0 0.0
2017-Apr-27 22:28N 34°14' E 135°08'0 0.0
2017-Apr-27 21:58N 34°14' E 135°08'0 0.0
2017-Apr-27 21:28N 34°14' E 135°08'0 0.0
2017-Apr-27 20:58N 34°14' E 135°08'0 0.0
2017-Apr-27 20:28N 34°14' E 135°08'0 0.0
2017-Apr-27 19:58N 34°14' E 135°08'0 0.0
2017-Apr-27 19:28N 34°14' E 135°08'0 0.0
2017-Apr-27 18:58N 34°14' E 135°08'0 0.0
2017-Apr-27 18:28N 34°14' E 135°08'0 0.0
2017-Apr-27 17:49N 34°14' E 135°08'0 0.0
2017-Apr-27 17:28N 34°14' E 135°08'0 0.0
2017-Apr-27 16:55N 34°14' E 135°08'0 0.0
2017-Apr-27 16:28N 34°14' E 135°08'0 0.0
2017-Apr-27 15:55N 34°14' E 135°08'0 0.0
2017-Apr-27 15:28N 34°14' E 135°08'0 0.0
2017-Apr-27 14:55N 34°14' E 135°08'4 4.2
2017-Apr-27 14:00N 34°12' E 135°04'611.0
2017-Apr-27 13:29N 34°07' E 135°01'8 0.2
2017-Apr-26 02:38N 33°59' E 134°57'210.8
2017-Apr-26 02:28N 34°01' E 134°58'511.1
2017-Apr-26 02:00N 34°06' E 135°00'611.5
2017-Apr-26 01:30N 34°11' E 135°03'5 9.1
2017-Apr-26 01:00N 34°14' E 135°07'0 0.1
2017-Apr-26 00:26N 34°15' E 135°07'0 0.0
2017-Apr-25 23:59N 34°15' E 135°07'0 0.0
2017-Apr-25 23:26N 34°15' E 135°07'0 0.1
2017-Apr-25 22:41N 34°15' E 135°07'0 0.0
2017-Apr-25 22:23N 34°15' E 135°07'0 0.0
2017-Apr-25 21:59N 34°15' E 135°07'0 0.0
2017-Apr-25 21:29N 34°15' E 135°07'0 0.0
2017-Apr-25 20:56N 34°15' E 135°07'1 1.6
2017-Apr-25 20:30N 34°14' E 135°07'1 1.3
2017-Apr-25 19:59N 34°14' E 135°08'0 0.0
2017-Apr-25 19:29N 34°14' E 135°08'0 0.0
2017-Apr-25 18:59N 34°14' E 135°08'0 0.0
2017-Apr-25 18:29N 34°14' E 135°08'0 0.0
2017-Apr-25 17:53N 34°14' E 135°08'0 0.0
2017-Apr-25 17:29N 34°14' E 135°08'0 0.0
2017-Apr-25 16:59N 34°14' E 135°08'0 0.0
2017-Apr-25 16:29N 34°14' E 135°08'0 0.0
2017-Apr-25 15:59N 34°14' E 135°08'0 0.0
2017-Apr-25 15:29N 34°14' E 135°08'0 0.0
2017-Apr-25 14:59N 34°14' E 135°08'0 0.0
2017-Apr-25 13:56N 34°14' E 135°08'0 0.0
2017-Apr-25 13:29N 34°14' E 135°08'0 0.0
2017-Apr-25 12:59N 34°14' E 135°08'0 0.0
2017-Apr-25 12:30N 34°14' E 135°08'1 1.6
2017-Apr-25 12:00N 34°14' E 135°07'2 4.7
2017-Apr-25 11:30N 34°13' E 135°04'611.3
2017-Apr-25 11:00N 34°08' E 135°02'  
2017-Apr-21 22:57N 34°12' E 134°57'611.4
2017-Apr-21 22:27N 34°17' E 134°59'510.5
2017-Apr-21 21:58N 34°22' E 135°01'511.4
2017-Apr-21 21:30N 34°26' E 135°06'612.0
2017-Apr-21 21:00N 34°30' E 135°11'611.9
2017-Apr-21 20:30N 34°34' E 135°17'612.2
2017-Apr-21 20:00N 34°38' E 135°22'4 8.0
2017-Apr-21 19:30N 34°38' E 135°27'0 0.1
2017-Apr-21 18:54N 34°38' E 135°27'0 0.0
2017-Apr-21 18:30N 34°38' E 135°27'0 0.0
2017-Apr-21 18:00N 34°38' E 135°27'0 0.0
2017-Apr-21 17:30N 34°38' E 135°27'0 0.0
2017-Apr-21 17:00N 34°38' E 135°27'0 0.0
2017-Apr-21 16:30N 34°38' E 135°27'0 0.0
2017-Apr-21 16:00N 34°38' E 135°27'0 0.0
2017-Apr-21 15:30N 34°38' E 135°27'0 0.1
2017-Apr-21 15:00N 34°38' E 135°27'3 6.3
2017-Apr-21 14:30N 34°38' E 135°23'1110.7
2017-Apr-21 13:30N 34°35' E 135°11'611.7
2017-Apr-21 13:00N 34°35' E 135°04'611.5
2017-Apr-21 12:30N 34°36' E 134°57'5 0.1
2017-Apr-19 10:52N 34°35' E 134°51'410.7
2017-Apr-19 10:30N 34°36' E 134°56'5 9.9
2017-Apr-19 10:00N 34°37' E 135°02'5 9.7
2017-Apr-19 09:30N 34°36' E 135°07'611.7
2017-Apr-19 09:00N 34°36' E 135°14'611.7
2017-Apr-19 08:30N 34°37' E 135°21'4 8.9
2017-Apr-19 08:00N 34°38' E 135°27'0 0.4
2017-Apr-19 07:26N 34°38' E 135°27'0 0.0
2017-Apr-19 06:56N 34°38' E 135°27'0 0.0
2017-Apr-19 06:26N 34°38' E 135°27'0 0.0
2017-Apr-19 05:56N 34°38' E 135°27'0 0.0
2017-Apr-19 05:26N 34°38' E 135°27'0 0.0
2017-Apr-19 04:56N 34°38' E 135°27'0 0.0
2017-Apr-19 04:26N 34°38' E 135°27'0 0.0
2017-Apr-19 03:56N 34°38' E 135°27'0 0.0
2017-Apr-19 03:26N 34°38' E 135°27'0 0.0
2017-Apr-19 02:50N 34°38' E 135°27'0 0.0
2017-Apr-19 02:26N 34°38' E 135°27'0 0.0
2017-Apr-19 02:00N 34°38' E 135°27'2 4.8
2017-Apr-19 01:30N 34°39' E 135°24'610.8
2017-Apr-19 00:58N 34°36' E 135°18'511.4
2017-Apr-19 00:30N 34°35' E 135°12'612.1
2017-Apr-19 00:00N 34°35' E 135°04'712.5
2017-Apr-18 23:28N 34°36' E 134°56'  

Dump ship's entire track history